createdAt,value
2022-10-07T00:02:15.031Z,100.00
2022-10-07T00:04:46.143Z,100.00
2022-10-07T00:07:14.777Z,100.00
2022-10-07T00:09:41.376Z,100.00
2022-10-07T00:12:08.160Z,100.00
2022-10-07T00:14:34.807Z,100.00
2022-10-07T00:17:01.604Z,100.00
2022-10-07T00:19:28.296Z,100.00
2022-10-07T00:21:55.041Z,100.00
2022-10-07T00:24:21.675Z,100.00
2022-10-07T00:26:48.291Z,100.00
2022-10-07T00:29:14.892Z,100.00
2022-10-07T00:31:41.864Z,100.00
2022-10-07T00:34:08.466Z,100.00
2022-10-07T00:36:37.558Z,100.00
2022-10-07T00:39:12.321Z,100.00
2022-10-07T00:41:42.050Z,100.00
2022-10-07T00:44:36.475Z,100.00
2022-10-07T00:47:24.311Z,100.00
2022-10-07T00:50:03.442Z,100.00
2022-10-07T00:52:33.633Z,100.00
2022-10-07T00:55:05.163Z,100.00
2022-10-07T00:57:32.042Z,100.00
2022-10-07T00:59:59.050Z,100.00
2022-10-07T01:02:27.015Z,100.00
2022-10-07T01:04:54.754Z,100.00
2022-10-07T01:07:21.713Z,100.00
2022-10-07T01:09:50.654Z,100.00
2022-10-07T01:12:24.107Z,100.00
2022-10-07T01:15:10.106Z,100.00
2022-10-07T01:17:47.752Z,100.00
2022-10-07T01:20:45.415Z,100.00
2022-10-07T01:23:25.147Z,100.00
2022-10-07T01:26:20.429Z,100.00
2022-10-07T01:28:54.525Z,100.00
2022-10-07T01:31:26.526Z,100.00
2022-10-07T01:33:54.127Z,100.00
2022-10-07T01:36:22.583Z,100.00
2022-10-07T01:38:51.850Z,100.00
2022-10-07T01:41:20.029Z,100.00
2022-10-07T01:43:48.001Z,100.00
2022-10-07T01:46:18.465Z,100.00
2022-10-07T01:48:48.180Z,100.00
2022-10-07T01:51:16.059Z,100.00
2022-10-07T01:53:54.450Z,100.00
2022-10-07T01:56:26.916Z,100.00
2022-10-07T01:59:05.352Z,100.00
2022-10-07T02:01:50.449Z,100.00
2022-10-07T02:04:38.845Z,100.00
2022-10-07T02:07:24.075Z,100.00
2022-10-07T02:10:04.231Z,100.00
2022-10-07T02:12:50.116Z,100.00
2022-10-07T02:15:20.454Z,100.00
2022-10-07T02:17:50.578Z,100.00
2022-10-07T02:20:17.622Z,100.00
2022-10-07T02:22:45.170Z,100.00
2022-10-07T02:25:13.662Z,100.00
2022-10-07T02:27:40.901Z,100.00
2022-10-07T02:30:13.175Z,100.00
2022-10-07T02:32:43.339Z,100.00
2022-10-07T02:35:18.833Z,100.00
2022-10-07T02:37:47.563Z,100.00
2022-10-07T02:40:14.522Z,100.00
2022-10-07T02:42:44.102Z,100.00
2022-10-07T02:45:39.605Z,100.00
2022-10-07T02:48:25.748Z,100.00
2022-10-07T02:50:56.508Z,100.00
2022-10-07T02:53:23.986Z,100.00
2022-10-07T02:55:51.589Z,100.00
2022-10-07T02:58:18.570Z,100.00
2022-10-07T03:00:48.114Z,100.00
2022-10-07T03:03:14.634Z,100.00
2022-10-07T03:05:41.125Z,100.00
2022-10-07T03:08:09.350Z,100.00
2022-10-07T03:10:36.182Z,100.00
2022-10-07T03:13:05.994Z,100.00
2022-10-07T03:15:39.747Z,100.00
2022-10-07T03:18:25.968Z,100.00
2022-10-07T03:20:53.532Z,100.00
2022-10-07T03:23:20.006Z,100.00
2022-10-07T03:25:53.957Z,100.00
2022-10-07T03:28:22.021Z,100.00
2022-10-07T03:30:49.251Z,100.00
2022-10-07T03:33:17.564Z,100.00
2022-10-07T03:35:44.672Z,100.00
2022-10-07T03:38:11.550Z,100.00
2022-10-07T03:40:38.520Z,100.00
2022-10-07T03:43:05.315Z,100.00
2022-10-07T03:45:31.931Z,100.00
2022-10-07T03:47:59.184Z,100.00
2022-10-07T03:50:26.307Z,100.00
2022-10-07T03:52:53.012Z,100.00
2022-10-07T03:55:19.810Z,100.00
2022-10-07T03:57:58.405Z,100.00
2022-10-07T04:00:26.707Z,100.00
2022-10-07T04:02:53.237Z,100.00
2022-10-07T04:05:20.730Z,100.00
2022-10-07T04:07:48.534Z,100.00
2022-10-07T04:10:16.776Z,100.00
2022-10-07T04:12:44.411Z,100.00
2022-10-07T04:15:30.815Z,100.00
2022-10-07T04:17:59.071Z,100.00
2022-10-07T04:20:26.210Z,100.00
2022-10-07T04:22:52.707Z,100.00
2022-10-07T04:25:34.336Z,100.00
2022-10-07T04:28:08.496Z,100.00
2022-10-07T04:30:39.442Z,100.00
2022-10-07T04:33:07.654Z,100.00
2022-10-07T04:35:36.620Z,100.00
2022-10-07T04:38:03.107Z,100.00
2022-10-07T04:40:30.902Z,100.00
2022-10-07T04:43:16.005Z,100.00
2022-10-07T04:45:42.447Z,100.00
2022-10-07T04:48:08.918Z,100.00
2022-10-07T04:50:38.631Z,100.00
2022-10-07T04:53:09.538Z,100.00
2022-10-07T04:55:39.834Z,100.00
2022-10-07T04:58:06.778Z,100.00
2022-10-07T05:00:33.570Z,100.00
2022-10-07T05:03:00.220Z,100.00
2022-10-07T05:05:27.831Z,100.00
2022-10-07T05:07:54.560Z,100.00
2022-10-07T05:10:21.980Z,100.00
2022-10-07T05:12:50.510Z,100.00
2022-10-07T05:15:20.761Z,100.00
2022-10-07T05:17:47.513Z,100.00
2022-10-07T05:20:14.240Z,100.00
2022-10-07T05:22:40.686Z,100.00
2022-10-07T05:25:07.387Z,100.00
2022-10-07T05:27:33.843Z,100.00
2022-10-07T05:30:00.327Z,100.00
2022-10-07T05:32:27.875Z,100.00
2022-10-07T05:34:54.357Z,100.00
2022-10-07T05:37:20.813Z,100.00
2022-10-07T05:39:47.613Z,100.00
2022-10-07T05:42:14.089Z,100.00
2022-10-07T05:44:40.594Z,100.00
2022-10-07T05:47:07.037Z,100.00
2022-10-07T05:49:33.665Z,100.00
2022-10-07T05:52:00.115Z,100.00
2022-10-07T05:54:26.636Z,100.00
2022-10-07T05:56:53.889Z,100.00
2022-10-07T05:59:20.720Z,100.00
2022-10-07T06:01:47.282Z,100.00
2022-10-07T06:04:13.815Z,100.00
2022-10-07T06:06:40.262Z,100.00
2022-10-07T06:09:25.240Z,100.00
2022-10-07T06:12:10.619Z,100.00
2022-10-07T06:14:37.156Z,100.00
2022-10-07T06:17:04.630Z,100.00
2022-10-07T06:19:31.201Z,100.00
2022-10-07T06:21:57.668Z,100.00
2022-10-07T06:24:25.355Z,100.00
2022-10-07T06:26:55.255Z,99.45
2022-10-07T06:29:22.003Z,97.44
2022-10-07T06:31:48.446Z,96.79
2022-10-07T06:34:15.127Z,95.71
2022-10-07T06:36:42.317Z,94.23
2022-10-07T06:39:08.780Z,94.22
2022-10-07T06:41:35.547Z,94.30
2022-10-07T06:44:02.023Z,95.54
2022-10-07T06:46:28.567Z,95.41
2022-10-07T06:48:55.101Z,94.83
2022-10-07T06:51:22.159Z,96.08
2022-10-07T06:53:53.659Z,96.02
2022-10-07T06:56:20.570Z,96.47
2022-10-07T06:58:48.633Z,97.44
2022-10-07T07:01:15.131Z,96.86
2022-10-07T07:03:42.326Z,96.49
2022-10-07T07:06:11.002Z,96.63
2022-10-07T07:08:38.723Z,96.96
2022-10-07T07:11:30.155Z,97.11
2022-10-07T07:13:57.133Z,97.11
2022-10-07T07:16:27.074Z,96.86
2022-10-07T07:18:55.401Z,97.10
2022-10-07T07:21:22.292Z,98.00
2022-10-07T07:23:48.991Z,98.18
2022-10-07T07:26:15.453Z,97.65
2022-10-07T07:28:41.981Z,98.35
2022-10-07T07:31:10.460Z,98.80
2022-10-07T07:33:38.307Z,99.72
2022-10-07T07:36:16.357Z,99.90
2022-10-07T07:38:43.777Z,100.00
2022-10-07T07:41:10.888Z,100.00
2022-10-07T07:43:37.513Z,100.00
2022-10-07T07:46:04.876Z,100.00
2022-10-07T07:48:31.422Z,100.00
2022-10-07T07:50:57.938Z,100.00
2022-10-07T07:53:24.402Z,100.00
2022-10-07T07:55:57.780Z,100.00
2022-10-07T07:58:24.819Z,100.00
2022-10-07T08:00:59.115Z,100.00
2022-10-07T08:03:26.616Z,100.00
2022-10-07T08:05:53.855Z,100.00
2022-10-07T08:08:20.310Z,100.00
2022-10-07T08:10:51.099Z,100.00
2022-10-07T08:13:18.431Z,100.00
2022-10-07T08:15:44.974Z,100.00
2022-10-07T08:18:11.514Z,100.00
2022-10-07T08:20:38.017Z,100.00
2022-10-07T08:23:05.389Z,100.00
2022-10-07T08:25:31.895Z,100.00
2022-10-07T08:27:58.672Z,100.00
2022-10-07T08:30:25.289Z,100.00
2022-10-07T08:32:51.784Z,100.00
2022-10-07T08:35:18.253Z,100.00
2022-10-07T08:37:44.895Z,100.00
2022-10-07T08:40:15.883Z,100.00
2022-10-07T08:42:42.797Z,100.00
2022-10-07T08:45:15.832Z,100.00
2022-10-07T08:47:44.121Z,100.00
2022-10-07T08:50:25.159Z,100.00
2022-10-07T08:52:55.172Z,100.00
2022-10-07T08:55:55.412Z,100.00
2022-10-07T08:58:57.823Z,100.00
2022-10-07T09:01:49.560Z,100.00
2022-10-07T09:04:44.137Z,100.00
2022-10-07T09:07:20.026Z,100.00
2022-10-07T09:10:12.389Z,100.00
2022-10-07T09:12:51.108Z,100.00
2022-10-07T09:15:30.406Z,100.00
2022-10-07T09:18:04.220Z,100.00
2022-10-07T09:20:35.987Z,100.00
2022-10-07T09:23:03.575Z,100.00
2022-10-07T09:25:30.999Z,100.00
2022-10-07T09:27:57.719Z,100.00
2022-10-07T09:30:25.526Z,100.00
2022-10-07T09:32:56.400Z,100.00
2022-10-07T09:35:26.448Z,100.00
2022-10-07T09:38:08.116Z,100.00
2022-10-07T09:41:02.383Z,100.00
2022-10-07T09:43:29.731Z,100.00
2022-10-07T09:45:57.083Z,100.00
2022-10-07T09:48:26.234Z,100.00
2022-10-07T09:51:12.195Z,100.00
2022-10-07T09:53:54.879Z,100.00
2022-10-07T09:56:33.837Z,100.00
2022-10-07T09:59:17.508Z,100.00
2022-10-07T10:01:51.204Z,100.00
2022-10-07T10:04:18.696Z,100.00
2022-10-07T10:06:50.881Z,100.00
2022-10-07T10:09:24.964Z,100.00
2022-10-07T10:12:14.114Z,100.00
2022-10-07T10:14:51.227Z,100.00
2022-10-07T10:17:35.592Z,100.00
2022-10-07T10:20:23.917Z,100.00
2022-10-07T10:22:51.384Z,99.26
2022-10-07T10:26:08.024Z,99.37
2022-10-07T10:28:38.579Z,98.41
2022-10-07T10:31:13.947Z,97.99
2022-10-07T10:33:55.927Z,96.91
2022-10-07T10:36:23.939Z,96.65
2022-10-07T10:38:58.447Z,96.37
2022-10-07T10:41:32.043Z,95.56
2022-10-07T10:44:01.830Z,94.91
2022-10-07T10:46:40.571Z,94.11
2022-10-07T10:49:25.944Z,94.95
2022-10-07T10:52:32.486Z,94.36
2022-10-07T10:55:29.713Z,95.19
2022-10-07T10:58:00.295Z,94.80
2022-10-07T11:00:36.956Z,94.39
2022-10-07T11:03:35.175Z,93.54
2022-10-07T11:06:05.551Z,93.15
2022-10-07T11:08:38.279Z,92.24
2022-10-07T11:11:08.859Z,92.24
2022-10-07T11:13:47.972Z,91.73
2022-10-07T11:16:25.181Z,91.75
2022-10-07T11:19:12.737Z,91.19
2022-10-07T11:21:43.035Z,91.04
2022-10-07T11:24:40.594Z,89.56
2022-10-07T11:27:25.127Z,89.70
2022-10-07T11:30:08.123Z,89.80
2022-10-07T11:32:55.721Z,90.26
2022-10-07T11:35:32.700Z,89.55
2022-10-07T11:38:06.280Z,89.91
2022-10-07T11:40:33.759Z,88.67
2022-10-07T11:43:21.761Z,88.56
2022-10-07T11:45:52.008Z,88.31
2022-10-07T11:48:24.107Z,87.52
2022-10-07T11:50:59.742Z,87.32
2022-10-07T11:53:28.505Z,87.01
2022-10-07T11:56:01.248Z,85.83
2022-10-07T11:58:36.007Z,86.49
2022-10-07T12:01:25.787Z,86.18
2022-10-07T12:03:53.958Z,86.87
2022-10-07T12:06:20.701Z,87.31
2022-10-07T12:08:47.176Z,87.77
2022-10-07T12:11:14.398Z,88.78
2022-10-07T12:13:50.514Z,88.72
2022-10-07T12:16:30.169Z,88.99
2022-10-07T12:19:10.366Z,88.21
2022-10-07T12:22:04.910Z,88.77
2022-10-07T12:24:36.372Z,88.65
2022-10-07T12:27:29.308Z,87.88
2022-10-07T12:30:02.585Z,89.03
2022-10-07T12:32:51.059Z,88.10
2022-10-07T12:35:29.564Z,88.06
2022-10-07T12:38:18.255Z,87.68
2022-10-07T12:40:50.006Z,88.79
2022-10-07T12:43:37.811Z,87.88
2022-10-07T12:46:15.404Z,87.90
2022-10-07T12:48:47.096Z,87.07
2022-10-07T12:51:19.404Z,87.94
2022-10-07T12:53:47.517Z,88.86
2022-10-07T12:56:28.288Z,88.03
2022-10-07T12:59:47.375Z,87.17
2022-10-07T13:02:54.931Z,87.78
2022-10-07T13:05:40.182Z,88.20
2022-10-07T13:08:48.729Z,88.96
2022-10-07T13:11:47.526Z,88.45
2022-10-07T13:14:17.236Z,88.71
2022-10-07T13:16:47.965Z,89.07
2022-10-07T13:19:26.773Z,89.64
2022-10-07T13:22:15.137Z,89.67
2022-10-07T13:24:46.931Z,89.93
2022-10-07T13:27:19.713Z,90.30
2022-10-07T13:29:46.720Z,89.80
2022-10-07T13:32:18.629Z,89.56
2022-10-07T13:34:47.976Z,89.20
2022-10-07T13:37:35.307Z,88.75
2022-10-07T13:40:22.031Z,88.74
2022-10-07T13:42:55.829Z,88.96
2022-10-07T13:45:22.635Z,89.14
2022-10-07T13:47:49.308Z,88.79
2022-10-07T13:50:19.099Z,88.28
2022-10-07T13:52:47.540Z,87.15
2022-10-07T13:55:28.319Z,86.55
2022-10-07T13:57:57.142Z,86.78
2022-10-07T14:00:28.160Z,85.20
2022-10-07T14:02:54.775Z,84.22
2022-10-07T14:05:32.905Z,84.14
2022-10-07T14:08:07.904Z,85.12
2022-10-07T14:10:34.364Z,85.00
2022-10-07T14:13:03.235Z,85.68
2022-10-07T14:15:31.419Z,85.12
2022-10-07T14:18:18.145Z,85.21
2022-10-07T14:20:48.092Z,85.86
2022-10-07T14:23:34.336Z,85.44
2022-10-07T14:26:06.851Z,86.46
2022-10-07T14:28:35.248Z,86.09
2022-10-07T14:31:26.386Z,86.53
2022-10-07T14:34:16.360Z,86.83
2022-10-07T14:37:07.731Z,86.42
2022-10-07T14:39:49.527Z,86.68
2022-10-07T14:42:44.224Z,87.42
2022-10-07T14:45:18.021Z,87.57
2022-10-07T14:47:46.012Z,87.90
2022-10-07T14:50:13.324Z,87.46
2022-10-07T14:52:49.429Z,86.94
2022-10-07T14:55:18.423Z,87.22
2022-10-07T14:57:48.064Z,87.05
2022-10-07T15:00:23.019Z,87.11
2022-10-07T15:02:54.524Z,87.36
2022-10-07T15:05:24.510Z,87.09
2022-10-07T15:07:51.176Z,87.33
2022-10-07T15:10:26.250Z,87.30
2022-10-07T15:12:53.626Z,86.83
2022-10-07T15:15:20.397Z,88.03
2022-10-07T15:17:47.912Z,88.43
2022-10-07T15:20:15.643Z,87.86
2022-10-07T15:22:42.779Z,89.26
2022-10-07T15:25:11.074Z,89.18
2022-10-07T15:27:38.028Z,89.62
2022-10-07T15:30:07.239Z,88.99
2022-10-07T15:32:34.028Z,89.43
2022-10-07T15:35:00.505Z,88.82
2022-10-07T15:37:27.371Z,89.14
2022-10-07T15:40:02.174Z,89.35
2022-10-07T15:42:29.634Z,89.90
2022-10-07T15:44:56.255Z,89.58
2022-10-07T15:47:22.771Z,89.73
2022-10-07T15:49:49.533Z,90.14
2022-10-07T15:52:16.239Z,90.43
2022-10-07T15:54:42.754Z,89.95
2022-10-07T15:57:09.259Z,89.61
2022-10-07T15:59:35.720Z,90.35
2022-10-07T16:02:02.437Z,89.83
2022-10-07T16:04:28.997Z,90.24
2022-10-07T16:06:55.478Z,90.57
2022-10-07T16:09:23.867Z,89.93
2022-10-07T16:11:51.456Z,90.28
2022-10-07T16:14:18.160Z,89.77
2022-10-07T16:16:45.413Z,90.18
2022-10-07T16:19:12.200Z,90.06
2022-10-07T16:21:41.230Z,89.64
2022-10-07T16:24:08.747Z,89.83
2022-10-07T16:26:37.909Z,89.59
2022-10-07T16:29:31.340Z,89.45
2022-10-07T16:31:59.143Z,89.58
2022-10-07T16:34:26.442Z,89.50
2022-10-07T16:36:52.898Z,89.48
2022-10-07T16:39:20.734Z,89.82
2022-10-07T16:41:48.535Z,89.29
2022-10-07T16:44:15.239Z,89.87
2022-10-07T16:46:42.239Z,90.50
2022-10-07T16:49:13.697Z,90.46
2022-10-07T16:51:40.828Z,90.09
2022-10-07T16:54:12.842Z,90.95
2022-10-07T16:56:41.494Z,90.57
2022-10-07T16:59:10.171Z,90.48
2022-10-07T17:01:37.958Z,91.14
2022-10-07T17:04:05.308Z,91.66
2022-10-07T17:06:32.223Z,91.04
2022-10-07T17:09:04.894Z,91.35
2022-10-07T17:11:35.745Z,90.91
2022-10-07T17:14:04.286Z,91.37
2022-10-07T17:16:34.351Z,91.69
2022-10-07T17:19:00.916Z,92.28
2022-10-07T17:21:28.026Z,91.67
2022-10-07T17:23:58.378Z,92.26
2022-10-07T17:26:27.226Z,91.97
2022-10-07T17:28:58.748Z,92.79
2022-10-07T17:31:25.837Z,93.02
2022-10-07T17:33:52.391Z,92.81
2022-10-07T17:36:21.249Z,92.81
2022-10-07T17:38:47.703Z,93.32
2022-10-07T17:41:19.757Z,93.05
2022-10-07T17:43:46.923Z,92.87
2022-10-07T17:46:15.187Z,93.08
2022-10-07T17:48:46.494Z,92.81
2022-10-07T17:51:15.343Z,92.80
2022-10-07T17:53:43.665Z,92.73
2022-10-07T17:56:12.691Z,92.94
2022-10-07T17:58:41.111Z,92.90
2022-10-07T18:01:11.845Z,93.05
2022-10-07T18:03:38.424Z,92.49
2022-10-07T18:06:07.500Z,93.07
2022-10-07T18:08:35.311Z,92.46
2022-10-07T18:11:02.848Z,93.15
2022-10-07T18:13:51.603Z,92.94
2022-10-07T18:16:20.383Z,92.89
2022-10-07T18:18:48.337Z,93.27
2022-10-07T18:21:14.968Z,93.52
2022-10-07T18:23:42.245Z,93.67
2022-10-07T18:26:10.725Z,93.63
2022-10-07T18:28:38.286Z,93.32
2022-10-07T18:31:12.023Z,92.65
2022-10-07T18:33:40.118Z,92.50
2022-10-07T18:36:11.936Z,92.34
2022-10-07T18:38:43.446Z,92.42
2022-10-07T18:41:12.443Z,92.01
2022-10-07T18:43:39.653Z,92.18
2022-10-07T18:46:10.264Z,91.45
2022-10-07T18:48:38.602Z,91.45
2022-10-07T18:51:06.386Z,92.30
2022-10-07T18:53:35.416Z,91.83
2022-10-07T18:56:04.988Z,92.26
2022-10-07T18:58:34.408Z,91.88
2022-10-07T19:01:14.684Z,92.13
2022-10-07T19:03:41.217Z,92.63
2022-10-07T19:06:12.783Z,92.83
2022-10-07T19:08:40.251Z,92.35
2022-10-07T19:11:08.912Z,92.74
2022-10-07T19:13:48.028Z,92.83
2022-10-07T19:16:19.231Z,92.52
2022-10-07T19:18:47.696Z,92.72
2022-10-07T19:21:15.246Z,93.18
2022-10-07T19:23:41.860Z,93.40
2022-10-07T19:26:08.780Z,93.84
2022-10-07T19:28:37.518Z,94.59
2022-10-07T19:31:16.685Z,94.76
2022-10-07T19:33:44.357Z,95.51
2022-10-07T19:36:12.175Z,95.52
2022-10-07T19:38:42.130Z,96.55
2022-10-07T19:41:10.522Z,96.70
2022-10-07T19:43:37.738Z,97.11
2022-10-07T19:46:06.156Z,96.46
2022-10-07T19:48:33.661Z,96.45
2022-10-07T19:51:01.240Z,96.55
2022-10-07T19:53:33.734Z,96.59
2022-10-07T19:56:01.944Z,96.24
2022-10-07T19:58:28.714Z,96.00
2022-10-07T20:01:14.794Z,96.04
2022-10-07T20:03:41.454Z,95.70
2022-10-07T20:06:09.731Z,95.79
2022-10-07T20:08:39.302Z,95.57
2022-10-07T20:11:06.509Z,95.41
2022-10-07T20:13:34.835Z,95.36
2022-10-07T20:16:21.745Z,95.49
2022-10-07T20:18:49.830Z,95.24
2022-10-07T20:21:23.799Z,95.64
2022-10-07T20:23:52.124Z,95.52
2022-10-07T20:26:22.983Z,94.80
2022-10-07T20:28:51.739Z,95.44
2022-10-07T20:31:21.740Z,95.06
2022-10-07T20:33:51.598Z,95.27
2022-10-07T20:36:20.786Z,95.11
2022-10-07T20:39:05.984Z,95.61
2022-10-07T20:41:51.837Z,94.64
2022-10-07T20:44:18.368Z,95.13
2022-10-07T20:46:45.254Z,95.37
2022-10-07T20:49:25.274Z,94.38
2022-10-07T20:51:53.752Z,94.25
2022-10-07T20:54:21.491Z,93.82
2022-10-07T20:56:48.872Z,94.03
2022-10-07T20:59:15.430Z,94.63
2022-10-07T21:01:42.379Z,93.92
2022-10-07T21:04:10.612Z,93.96
2022-10-07T21:06:37.068Z,93.54
2022-10-07T21:09:03.635Z,93.26
2022-10-07T21:11:30.258Z,93.66
2022-10-07T21:13:57.026Z,93.70
2022-10-07T21:16:24.655Z,93.87
2022-10-07T21:18:51.173Z,93.50
2022-10-07T21:21:17.828Z,92.84
2022-10-07T21:23:44.999Z,93.28
2022-10-07T21:26:11.706Z,92.76
2022-10-07T21:28:39.161Z,92.59
2022-10-07T21:31:10.656Z,92.65
2022-10-07T21:33:39.718Z,92.64
2022-10-07T21:36:10.577Z,92.33
2022-10-07T21:38:37.297Z,91.84
2022-10-07T21:41:31.183Z,92.20
2022-10-07T21:43:58.423Z,92.12
2022-10-07T21:46:26.456Z,92.18
2022-10-07T21:48:54.536Z,92.50
2022-10-07T21:51:22.123Z,93.26
2022-10-07T21:53:52.632Z,92.79
2022-10-07T21:56:19.554Z,93.07
2022-10-07T21:58:47.105Z,92.87
2022-10-07T22:01:15.906Z,92.65
2022-10-07T22:03:43.112Z,92.82
2022-10-07T22:06:11.632Z,92.38
2022-10-07T22:08:38.435Z,92.52
2022-10-07T22:11:06.476Z,92.20
2022-10-07T22:13:34.826Z,91.79
2022-10-07T22:16:02.976Z,91.50
2022-10-07T22:18:33.182Z,91.74
2022-10-07T22:21:09.534Z,91.69
2022-10-07T22:23:36.023Z,90.88
2022-10-07T22:26:06.834Z,91.35
2022-10-07T22:28:37.355Z,91.15
2022-10-07T22:31:06.903Z,91.50
2022-10-07T22:33:34.129Z,91.73
2022-10-07T22:36:03.740Z,91.77
2022-10-07T22:38:30.212Z,91.99
2022-10-07T22:40:56.704Z,91.65
2022-10-07T22:43:23.165Z,91.84
2022-10-07T22:45:57.100Z,91.78
2022-10-07T22:48:24.547Z,92.04
2022-10-07T22:50:51.215Z,91.85
2022-10-07T22:53:17.703Z,92.27
2022-10-07T22:55:44.235Z,91.93
2022-10-07T22:58:11.008Z,91.96
2022-10-07T23:00:38.208Z,92.01
2022-10-07T23:03:05.486Z,92.19
2022-10-07T23:05:37.961Z,92.48
2022-10-07T23:08:04.923Z,91.96
2022-10-07T23:10:31.366Z,92.25
2022-10-07T23:12:59.089Z,93.93
2022-10-07T23:15:25.568Z,95.60
2022-10-07T23:17:53.356Z,97.45
2022-10-07T23:20:19.853Z,99.70
2022-10-07T23:22:46.879Z,100.00
2022-10-07T23:25:13.562Z,100.00
2022-10-07T23:27:40.243Z,100.00
2022-10-07T23:30:07.315Z,100.00
2022-10-07T23:32:33.956Z,100.00
2022-10-07T23:35:00.429Z,100.00
2022-10-07T23:37:26.882Z,100.00
2022-10-07T23:39:53.399Z,100.00
2022-10-07T23:42:19.861Z,100.00
2022-10-07T23:44:46.367Z,100.00
2022-10-07T23:47:12.828Z,100.00
2022-10-07T23:49:39.311Z,100.00
2022-10-07T23:52:05.768Z,100.00
2022-10-07T23:54:32.292Z,100.00
2022-10-07T23:56:58.749Z,100.00
2022-10-07T23:59:25.213Z,100.00
